Terminal Aerodrome Forecast
Issued by NWS North Platte, NE

Home | Current Version | Previous Version | Text Only | Print | Product List | Glossary On
Versions: 1 2 3 4 5 6 7 8 9 10 11 12 13
470
FTUS43 KLBF 191720
TAFVTN
TAF
KVTN 191720Z 1918/2018 20018G26KT P6SM SKC
     FM200000 17012KT P6SM FEW250
     FM200300 18012KT P6SM FEW250 WS020/19045KT
     FM201100 19011G17KT P6SM FEW250
     FM201600 19019G27KT P6SM FEW200=

USA.gov is the U.S. government's official web portal to all federal, state and local government web resources and services.